Montrose, South Dakota
Current Conditions -  °F | °C
As of 9:55 AM on Friday 28 Nov 2014 (Local Time) from KMDS Reporting Station
Scattered Clouds Scattered Clouds  
Wind Chill: 13°   Ceiling: Unl
Heat Index: 21°   Visibility: 10mi
Dew Point: 21°   Wind: 7mph
Humidity: 100%   Direction: 130°SE
Pressure: 29.79"   Gusts: NA
Location:  43.7°N, 97.18°W
Report Text: KMDS 281555Z AUTO 13006KT 10SM SCT110 M06/M06 A2979 RMK AO2
Loading
Personal Weather Stations






























Interactive Weather Map New forecast layout! Learn more

10-Day Weather Forecast

Advertisements
Track Severe Weather on mobile